sensor_id;sensor_type;location;lat;lon;timestamp;P1;durP1;ratioP1;P2;durP2;ratioP2
13386;SDS011;6763;48.524;9.044;2023-04-23T00:02:14;2.65;;;1.35;;
13386;SDS011;6763;48.524;9.044;2023-04-23T00:04:41;1.10;;;0.93;;
13386;SDS011;6763;48.524;9.044;2023-04-23T00:07:14;2.03;;;1.02;;
13386;SDS011;6763;48.524;9.044;2023-04-23T00:09:40;1.80;;;1.05;;
13386;SDS011;6763;48.524;9.044;2023-04-23T00:12:07;2.78;;;1.20;;
13386;SDS011;6763;48.524;9.044;2023-04-23T00:14:33;1.45;;;1.23;;
13386;SDS011;6763;48.524;9.044;2023-04-23T00:16:58;2.53;;;0.98;;
13386;SDS011;6763;48.524;9.044;2023-04-23T00:19:24;2.63;;;1.45;;
13386;SDS011;6763;48.524;9.044;2023-04-23T00:21:49;0.90;;;0.90;;
13386;SDS011;6763;48.524;9.044;2023-04-23T00:24:15;1.35;;;1.10;;
13386;SDS011;6763;48.524;9.044;2023-04-23T00:26:40;1.80;;;1.08;;
13386;SDS011;6763;48.524;9.044;2023-04-23T00:29:06;1.20;;;1.10;;
13386;SDS011;6763;48.524;9.044;2023-04-23T00:31:31;1.85;;;1.20;;
13386;SDS011;6763;48.524;9.044;2023-04-23T00:33:56;1.08;;;0.98;;
13386;SDS011;6763;48.524;9.044;2023-04-23T00:36:21;0.82;;;0.82;;
13386;SDS011;6763;48.524;9.044;2023-04-23T00:38:47;2.50;;;1.60;;
13386;SDS011;6763;48.524;9.044;2023-04-23T00:41:12;1.63;;;1.20;;
13386;SDS011;6763;48.524;9.044;2023-04-23T00:43:39;3.78;;;1.00;;
13386;SDS011;6763;48.524;9.044;2023-04-23T00:46:04;1.48;;;1.38;;
13386;SDS011;6763;48.524;9.044;2023-04-23T00:48:30;4.68;;;1.70;;
13386;SDS011;6763;48.524;9.044;2023-04-23T00:50:58;1.98;;;1.10;;
13386;SDS011;6763;48.524;9.044;2023-04-23T00:53:27;5.80;;;1.35;;
13386;SDS011;6763;48.524;9.044;2023-04-23T00:55:52;1.52;;;1.35;;
13386;SDS011;6763;48.524;9.044;2023-04-23T00:58:18;2.97;;;1.45;;
13386;SDS011;6763;48.524;9.044;2023-04-23T01:00:43;1.23;;;1.13;;
13386;SDS011;6763;48.524;9.044;2023-04-23T01:03:12;1.67;;;1.20;;
13386;SDS011;6763;48.524;9.044;2023-04-23T01:05:39;1.90;;;1.42;;
13386;SDS011;6763;48.524;9.044;2023-04-23T01:08:06;1.63;;;1.10;;
13386;SDS011;6763;48.524;9.044;2023-04-23T01:10:32;1.40;;;1.30;;
13386;SDS011;6763;48.524;9.044;2023-04-23T01:12:58;2.15;;;1.60;;
13386;SDS011;6763;48.524;9.044;2023-04-23T01:15:23;1.35;;;1.20;;
13386;SDS011;6763;48.524;9.044;2023-04-23T01:17:49;1.52;;;1.35;;
13386;SDS011;6763;48.524;9.044;2023-04-23T01:20:14;3.13;;;0.90;;
13386;SDS011;6763;48.524;9.044;2023-04-23T01:22:40;1.23;;;1.13;;
13386;SDS011;6763;48.524;9.044;2023-04-23T01:25:05;1.42;;;1.33;;
13386;SDS011;6763;48.524;9.044;2023-04-23T01:27:32;2.88;;;1.10;;
13386;SDS011;6763;48.524;9.044;2023-04-23T01:30:00;1.30;;;1.15;;
13386;SDS011;6763;48.524;9.044;2023-04-23T01:32:30;1.20;;;1.10;;
13386;SDS011;6763;48.524;9.044;2023-04-23T01:34:56;1.38;;;1.17;;
13386;SDS011;6763;48.524;9.044;2023-04-23T01:37:22;2.38;;;1.48;;
13386;SDS011;6763;48.524;9.044;2023-04-23T01:39:48;1.88;;;1.27;;
13386;SDS011;6763;48.524;9.044;2023-04-23T01:42:14;1.15;;;1.05;;
13386;SDS011;6763;48.524;9.044;2023-04-23T01:44:39;2.38;;;1.13;;
13386;SDS011;6763;48.524;9.044;2023-04-23T01:47:05;4.32;;;1.20;;
13386;SDS011;6763;48.524;9.044;2023-04-23T01:49:30;2.00;;;1.20;;
13386;SDS011;6763;48.524;9.044;2023-04-23T01:51:56;1.67;;;1.20;;
13386;SDS011;6763;48.524;9.044;2023-04-23T01:54:21;2.05;;;1.25;;
13386;SDS011;6763;48.524;9.044;2023-04-23T01:56:47;1.23;;;1.00;;
13386;SDS011;6763;48.524;9.044;2023-04-23T01:59:12;3.80;;;0.70;;
13386;SDS011;6763;48.524;9.044;2023-04-23T02:01:44;1.23;;;1.13;;
13386;SDS011;6763;48.524;9.044;2023-04-23T02:04:11;5.47;;;0.82;;
13386;SDS011;6763;48.524;9.044;2023-04-23T02:06:37;0.70;;;0.70;;
13386;SDS011;6763;48.524;9.044;2023-04-23T02:09:03;0.55;;;0.55;;
13386;SDS011;6763;48.524;9.044;2023-04-23T02:11:29;1.02;;;0.90;;
13386;SDS011;6763;48.524;9.044;2023-04-23T02:13:55;1.42;;;0.90;;
13386;SDS011;6763;48.524;9.044;2023-04-23T02:16:20;1.70;;;0.80;;
13386;SDS011;6763;48.524;9.044;2023-04-23T02:18:48;0.95;;;0.70;;
13386;SDS011;6763;48.524;9.044;2023-04-23T02:21:13;0.82;;;0.70;;
13386;SDS011;6763;48.524;9.044;2023-04-23T02:23:39;0.55;;;0.55;;
13386;SDS011;6763;48.524;9.044;2023-04-23T02:26:04;0.82;;;0.80;;
13386;SDS011;6763;48.524;9.044;2023-04-23T02:28:30;1.25;;;0.80;;
13386;SDS011;6763;48.524;9.044;2023-04-23T02:30:55;0.50;;;0.50;;
13386;SDS011;6763;48.524;9.044;2023-04-23T02:33:21;0.60;;;0.60;;
13386;SDS011;6763;48.524;9.044;2023-04-23T02:35:46;0.50;;;0.50;;
13386;SDS011;6763;48.524;9.044;2023-04-23T02:38:11;0.50;;;0.50;;
13386;SDS011;6763;48.524;9.044;2023-04-23T02:40:37;0.80;;;0.55;;
13386;SDS011;6763;48.524;9.044;2023-04-23T02:43:02;0.63;;;0.63;;
13386;SDS011;6763;48.524;9.044;2023-04-23T02:45:27;0.60;;;0.60;;
13386;SDS011;6763;48.524;9.044;2023-04-23T02:47:53;1.10;;;0.50;;
13386;SDS011;6763;48.524;9.044;2023-04-23T02:50:18;1.30;;;0.70;;
13386;SDS011;6763;48.524;9.044;2023-04-23T02:52:43;0.50;;;0.50;;
13386;SDS011;6763;48.524;9.044;2023-04-23T02:55:09;0.85;;;0.68;;
13386;SDS011;6763;48.524;9.044;2023-04-23T02:57:35;0.50;;;0.50;;
13386;SDS011;6763;48.524;9.044;2023-04-23T03:00:01;0.68;;;0.68;;
13386;SDS011;6763;48.524;9.044;2023-04-23T03:02:30;0.60;;;0.60;;
13386;SDS011;6763;48.524;9.044;2023-04-23T03:04:55;1.13;;;0.70;;
13386;SDS011;6763;48.524;9.044;2023-04-23T03:07:20;0.80;;;0.80;;
13386;SDS011;6763;48.524;9.044;2023-04-23T03:09:46;0.73;;;0.73;;
13386;SDS011;6763;48.524;9.044;2023-04-23T03:12:11;1.20;;;0.80;;
13386;SDS011;6763;48.524;9.044;2023-04-23T03:14:36;2.05;;;0.80;;
13386;SDS011;6763;48.524;9.044;2023-04-23T03:17:02;0.60;;;0.60;;
13386;SDS011;6763;48.524;9.044;2023-04-23T03:19:27;0.82;;;0.60;;
13386;SDS011;6763;48.524;9.044;2023-04-23T03:21:53;0.60;;;0.60;;
13386;SDS011;6763;48.524;9.044;2023-04-23T03:24:18;0.70;;;0.70;;
13386;SDS011;6763;48.524;9.044;2023-04-23T03:26:43;0.80;;;0.80;;
13386;SDS011;6763;48.524;9.044;2023-04-23T03:29:08;0.75;;;0.75;;
13386;SDS011;6763;48.524;9.044;2023-04-23T03:31:34;1.92;;;0.88;;
13386;SDS011;6763;48.524;9.044;2023-04-23T03:34:00;0.88;;;0.85;;
13386;SDS011;6763;48.524;9.044;2023-04-23T03:36:25;1.38;;;1.10;;
13386;SDS011;6763;48.524;9.044;2023-04-23T03:38:50;2.42;;;0.95;;
13386;SDS011;6763;48.524;9.044;2023-04-23T03:41:16;1.02;;;0.98;;
13386;SDS011;6763;48.524;9.044;2023-04-23T03:43:42;1.45;;;1.17;;
13386;SDS011;6763;48.524;9.044;2023-04-23T03:46:07;1.55;;;1.20;;
13386;SDS011;6763;48.524;9.044;2023-04-23T03:48:32;1.80;;;1.10;;
13386;SDS011;6763;48.524;9.044;2023-04-23T03:50:57;0.90;;;0.90;;
13386;SDS011;6763;48.524;9.044;2023-04-23T03:53:23;1.48;;;1.10;;
13386;SDS011;6763;48.524;9.044;2023-04-23T03:55:48;1.67;;;1.08;;
13386;SDS011;6763;48.524;9.044;2023-04-23T03:58:14;0.70;;;0.70;;
13386;SDS011;6763;48.524;9.044;2023-04-23T04:00:39;0.70;;;0.70;;
13386;SDS011;6763;48.524;9.044;2023-04-23T04:03:05;1.15;;;1.00;;
13386;SDS011;6763;48.524;9.044;2023-04-23T04:05:30;0.90;;;0.90;;
13386;SDS011;6763;48.524;9.044;2023-04-23T04:07:55;3.33;;;1.13;;
13386;SDS011;6763;48.524;9.044;2023-04-23T04:10:21;0.98;;;0.80;;
13386;SDS011;6763;48.524;9.044;2023-04-23T04:12:46;0.77;;;0.77;;
13386;SDS011;6763;48.524;9.044;2023-04-23T04:15:12;0.70;;;0.70;;
13386;SDS011;6763;48.524;9.044;2023-04-23T04:17:38;1.10;;;1.00;;
13386;SDS011;6763;48.524;9.044;2023-04-23T04:20:05;1.20;;;1.00;;
13386;SDS011;6763;48.524;9.044;2023-04-23T04:22:32;3.97;;;2.15;;
13386;SDS011;6763;48.524;9.044;2023-04-23T04:24:57;2.53;;;1.33;;
13386;SDS011;6763;48.524;9.044;2023-04-23T04:27:23;1.48;;;1.20;;
13386;SDS011;6763;48.524;9.044;2023-04-23T04:29:48;3.22;;;1.02;;
13386;SDS011;6763;48.524;9.044;2023-04-23T04:32:13;2.00;;;1.17;;
13386;SDS011;6763;48.524;9.044;2023-04-23T04:34:39;2.67;;;1.58;;
13386;SDS011;6763;48.524;9.044;2023-04-23T04:37:04;1.30;;;1.20;;
13386;SDS011;6763;48.524;9.044;2023-04-23T04:39:30;2.42;;;1.00;;
13386;SDS011;6763;48.524;9.044;2023-04-23T04:41:55;0.90;;;0.90;;
13386;SDS011;6763;48.524;9.044;2023-04-23T04:44:21;2.47;;;1.40;;
13386;SDS011;6763;48.524;9.044;2023-04-23T04:46:47;1.50;;;1.30;;
13386;SDS011;6763;48.524;9.044;2023-04-23T04:49:12;1.30;;;1.20;;
13386;SDS011;6763;48.524;9.044;2023-04-23T04:51:38;4.15;;;1.58;;
13386;SDS011;6763;48.524;9.044;2023-04-23T04:54:05;2.40;;;1.50;;
13386;SDS011;6763;48.524;9.044;2023-04-23T04:56:31;1.33;;;1.13;;
13386;SDS011;6763;48.524;9.044;2023-04-23T04:59:00;1.52;;;1.05;;
13386;SDS011;6763;48.524;9.044;2023-04-23T05:01:27;1.10;;;1.00;;
13386;SDS011;6763;48.524;9.044;2023-04-23T05:03:53;0.70;;;0.70;;
13386;SDS011;6763;48.524;9.044;2023-04-23T05:06:19;2.30;;;1.23;;
13386;SDS011;6763;48.524;9.044;2023-04-23T05:08:45;1.27;;;1.17;;
13386;SDS011;6763;48.524;9.044;2023-04-23T05:11:15;1.13;;;1.05;;
13386;SDS011;6763;48.524;9.044;2023-04-23T05:13:42;2.17;;;1.33;;
13386;SDS011;6763;48.524;9.044;2023-04-23T05:16:11;1.50;;;1.40;;
13386;SDS011;6763;48.524;9.044;2023-04-23T05:18:37;1.30;;;1.20;;
13386;SDS011;6763;48.524;9.044;2023-04-23T05:21:04;2.08;;;0.90;;
13386;SDS011;6763;48.524;9.044;2023-04-23T05:23:30;1.05;;;0.95;;
13386;SDS011;6763;48.524;9.044;2023-04-23T05:25:56;2.67;;;1.30;;
13386;SDS011;6763;48.524;9.044;2023-04-23T05:28:22;3.33;;;1.13;;
13386;SDS011;6763;48.524;9.044;2023-04-23T05:30:48;1.20;;;1.05;;
13386;SDS011;6763;48.524;9.044;2023-04-23T05:33:14;1.48;;;0.93;;
13386;SDS011;6763;48.524;9.044;2023-04-23T05:35:39;2.58;;;1.40;;
13386;SDS011;6763;48.524;9.044;2023-04-23T05:38:05;0.85;;;0.85;;
13386;SDS011;6763;48.524;9.044;2023-04-23T05:40:30;1.30;;;1.20;;
13386;SDS011;6763;48.524;9.044;2023-04-23T05:42:59;1.20;;;1.10;;
13386;SDS011;6763;48.524;9.044;2023-04-23T05:45:25;1.27;;;1.02;;
13386;SDS011;6763;48.524;9.044;2023-04-23T05:47:50;1.25;;;1.15;;
13386;SDS011;6763;48.524;9.044;2023-04-23T05:50:16;1.80;;;0.90;;
13386;SDS011;6763;48.524;9.044;2023-04-23T05:52:41;0.98;;;0.98;;
13386;SDS011;6763;48.524;9.044;2023-04-23T05:55:07;4.13;;;0.90;;
13386;SDS011;6763;48.524;9.044;2023-04-23T05:57:33;1.95;;;0.90;;
13386;SDS011;6763;48.524;9.044;2023-04-23T06:00:00;1.77;;;1.33;;
13386;SDS011;6763;48.524;9.044;2023-04-23T06:02:25;1.20;;;1.08;;
13386;SDS011;6763;48.524;9.044;2023-04-23T06:04:52;1.20;;;1.10;;
13386;SDS011;6763;48.524;9.044;2023-04-23T06:07:17;0.85;;;0.85;;
13386;SDS011;6763;48.524;9.044;2023-04-23T06:09:43;1.20;;;1.10;;
13386;SDS011;6763;48.524;9.044;2023-04-23T06:12:09;1.23;;;1.00;;
13386;SDS011;6763;48.524;9.044;2023-04-23T06:14:35;1.13;;;1.02;;
13386;SDS011;6763;48.524;9.044;2023-04-23T06:17:00;0.65;;;0.65;;
13386;SDS011;6763;48.524;9.044;2023-04-23T06:19:26;0.73;;;0.60;;
13386;SDS011;6763;48.524;9.044;2023-04-23T06:21:52;0.60;;;0.60;;
13386;SDS011;6763;48.524;9.044;2023-04-23T06:24:17;0.70;;;0.70;;
13386;SDS011;6763;48.524;9.044;2023-04-23T06:26:43;1.23;;;0.60;;
13386;SDS011;6763;48.524;9.044;2023-04-23T06:29:08;1.55;;;0.88;;
13386;SDS011;6763;48.524;9.044;2023-04-23T06:31:33;0.70;;;0.63;;
13386;SDS011;6763;48.524;9.044;2023-04-23T06:33:59;0.47;;;0.47;;
13386;SDS011;6763;48.524;9.044;2023-04-23T06:36:25;0.47;;;0.47;;
13386;SDS011;6763;48.524;9.044;2023-04-23T06:38:50;0.45;;;0.45;;
13386;SDS011;6763;48.524;9.044;2023-04-23T06:41:15;0.60;;;0.60;;
13386;SDS011;6763;48.524;9.044;2023-04-23T06:43:41;0.40;;;0.40;;
13386;SDS011;6763;48.524;9.044;2023-04-23T06:46:06;0.50;;;0.50;;
13386;SDS011;6763;48.524;9.044;2023-04-23T06:48:31;0.57;;;0.57;;
13386;SDS011;6763;48.524;9.044;2023-04-23T06:50:57;0.50;;;0.50;;
13386;SDS011;6763;48.524;9.044;2023-04-23T06:53:23;0.90;;;0.70;;
13386;SDS011;6763;48.524;9.044;2023-04-23T06:55:48;0.63;;;0.63;;
13386;SDS011;6763;48.524;9.044;2023-04-23T06:58:15;0.50;;;0.50;;
13386;SDS011;6763;48.524;9.044;2023-04-23T07:00:40;0.50;;;0.50;;
13386;SDS011;6763;48.524;9.044;2023-04-23T07:03:06;0.50;;;0.50;;
13386;SDS011;6763;48.524;9.044;2023-04-23T07:05:31;0.68;;;0.68;;
13386;SDS011;6763;48.524;9.044;2023-04-23T07:07:56;0.40;;;0.40;;
13386;SDS011;6763;48.524;9.044;2023-04-23T07:10:22;0.50;;;0.50;;
13386;SDS011;6763;48.524;9.044;2023-04-23T07:12:48;0.43;;;0.40;;
13386;SDS011;6763;48.524;9.044;2023-04-23T07:15:14;2.05;;;0.40;;
13386;SDS011;6763;48.524;9.044;2023-04-23T07:17:39;0.60;;;0.60;;
13386;SDS011;6763;48.524;9.044;2023-04-23T07:20:05;0.50;;;0.50;;
13386;SDS011;6763;48.524;9.044;2023-04-23T07:22:32;0.50;;;0.50;;
13386;SDS011;6763;48.524;9.044;2023-04-23T07:24:59;0.55;;;0.50;;
13386;SDS011;6763;48.524;9.044;2023-04-23T07:27:25;0.38;;;0.38;;
13386;SDS011;6763;48.524;9.044;2023-04-23T07:29:51;0.47;;;0.47;;
13386;SDS011;6763;48.524;9.044;2023-04-23T07:32:16;0.80;;;0.60;;
13386;SDS011;6763;48.524;9.044;2023-04-23T07:34:42;0.55;;;0.55;;
13386;SDS011;6763;48.524;9.044;2023-04-23T07:37:07;0.70;;;0.55;;
13386;SDS011;6763;48.524;9.044;2023-04-23T07:39:32;0.40;;;0.40;;
13386;SDS011;6763;48.524;9.044;2023-04-23T07:41:58;0.35;;;0.35;;
13386;SDS011;6763;48.524;9.044;2023-04-23T07:44:24;0.30;;;0.30;;
13386;SDS011;6763;48.524;9.044;2023-04-23T07:46:49;0.40;;;0.40;;
13386;SDS011;6763;48.524;9.044;2023-04-23T07:49:15;0.70;;;0.45;;
13386;SDS011;6763;48.524;9.044;2023-04-23T07:51:40;0.30;;;0.30;;
13386;SDS011;6763;48.524;9.044;2023-04-23T07:54:06;1.50;;;0.50;;
13386;SDS011;6763;48.524;9.044;2023-04-23T07:56:32;0.30;;;0.30;;
13386;SDS011;6763;48.524;9.044;2023-04-23T07:58:58;0.30;;;0.30;;
13386;SDS011;6763;48.524;9.044;2023-04-23T08:01:23;0.47;;;0.47;;
13386;SDS011;6763;48.524;9.044;2023-04-23T08:03:50;0.30;;;0.30;;
13386;SDS011;6763;48.524;9.044;2023-04-23T08:06:15;0.22;;;0.22;;
13386;SDS011;6763;48.524;9.044;2023-04-23T08:08:42;0.30;;;0.30;;
13386;SDS011;6763;48.524;9.044;2023-04-23T08:11:07;0.40;;;0.40;;
13386;SDS011;6763;48.524;9.044;2023-04-23T08:13:33;2.15;;;0.40;;
13386;SDS011;6763;48.524;9.044;2023-04-23T08:15:58;0.40;;;0.40;;
13386;SDS011;6763;48.524;9.044;2023-04-23T08:18:23;0.50;;;0.50;;
13386;SDS011;6763;48.524;9.044;2023-04-23T08:20:49;0.70;;;0.60;;
13386;SDS011;6763;48.524;9.044;2023-04-23T08:23:14;0.50;;;0.50;;
13386;SDS011;6763;48.524;9.044;2023-04-23T08:25:40;1.60;;;0.50;;
13386;SDS011;6763;48.524;9.044;2023-04-23T08:28:05;0.30;;;0.30;;
13386;SDS011;6763;48.524;9.044;2023-04-23T08:30:30;0.60;;;0.60;;
13386;SDS011;6763;48.524;9.044;2023-04-23T08:32:56;0.30;;;0.30;;
13386;SDS011;6763;48.524;9.044;2023-04-23T08:35:22;0.35;;;0.35;;
13386;SDS011;6763;48.524;9.044;2023-04-23T08:37:48;1.38;;;0.60;;
13386;SDS011;6763;48.524;9.044;2023-04-23T08:40:13;0.40;;;0.40;;
13386;SDS011;6763;48.524;9.044;2023-04-23T08:42:44;0.77;;;0.70;;
13386;SDS011;6763;48.524;9.044;2023-04-23T08:45:16;0.50;;;0.40;;
13386;SDS011;6763;48.524;9.044;2023-04-23T08:47:42;0.40;;;0.40;;
13386;SDS011;6763;48.524;9.044;2023-04-23T08:50:12;0.50;;;0.50;;
13386;SDS011;6763;48.524;9.044;2023-04-23T08:52:49;0.50;;;0.50;;
13386;SDS011;6763;48.524;9.044;2023-04-23T08:55:18;0.75;;;0.52;;
13386;SDS011;6763;48.524;9.044;2023-04-23T08:57:45;0.40;;;0.40;;
13386;SDS011;6763;48.524;9.044;2023-04-23T09:00:11;0.45;;;0.40;;
13386;SDS011;6763;48.524;9.044;2023-04-23T09:02:40;0.30;;;0.30;;
13386;SDS011;6763;48.524;9.044;2023-04-23T09:05:07;1.08;;;0.40;;
13386;SDS011;6763;48.524;9.044;2023-04-23T09:07:33;0.30;;;0.30;;
13386;SDS011;6763;48.524;9.044;2023-04-23T09:10:03;0.47;;;0.47;;
13386;SDS011;6763;48.524;9.044;2023-04-23T09:12:30;0.40;;;0.40;;
13386;SDS011;6763;48.524;9.044;2023-04-23T09:14:59;0.47;;;0.47;;
13386;SDS011;6763;48.524;9.044;2023-04-23T09:17:27;0.50;;;0.50;;
13386;SDS011;6763;48.524;9.044;2023-04-23T09:19:54;0.47;;;0.47;;
13386;SDS011;6763;48.524;9.044;2023-04-23T09:25:10;0.40;;;0.40;;
13386;SDS011;6763;48.524;9.044;2023-04-23T09:27:36;0.40;;;0.40;;
13386;SDS011;6763;48.524;9.044;2023-04-23T09:30:03;0.35;;;0.35;;
13386;SDS011;6763;48.524;9.044;2023-04-23T09:32:31;0.30;;;0.30;;
13386;SDS011;6763;48.524;9.044;2023-04-23T09:34:58;0.40;;;0.40;;
13386;SDS011;6763;48.524;9.044;2023-04-23T09:37:25;0.40;;;0.40;;
13386;SDS011;6763;48.524;9.044;2023-04-23T09:39:51;0.40;;;0.40;;
13386;SDS011;6763;48.524;9.044;2023-04-23T09:42:19;0.80;;;0.50;;
13386;SDS011;6763;48.524;9.044;2023-04-23T09:47:50;0.52;;;0.38;;
13386;SDS011;6763;48.524;9.044;2023-04-23T09:53:05;0.32;;;0.32;;
13386;SDS011;6763;48.524;9.044;2023-04-23T09:55:33;0.40;;;0.40;;
13386;SDS011;6763;48.524;9.044;2023-04-23T09:58:13;0.43;;;0.43;;
13386;SDS011;6763;48.524;9.044;2023-04-23T10:00:39;0.38;;;0.30;;
13386;SDS011;6763;48.524;9.044;2023-04-23T10:03:05;0.50;;;0.50;;
13386;SDS011;6763;48.524;9.044;2023-04-23T10:05:36;0.32;;;0.32;;
13386;SDS011;6763;48.524;9.044;2023-04-23T10:08:05;0.40;;;0.40;;
13386;SDS011;6763;48.524;9.044;2023-04-23T10:10:31;0.40;;;0.40;;
13386;SDS011;6763;48.524;9.044;2023-04-23T10:12:58;0.60;;;0.40;;
13386;SDS011;6763;48.524;9.044;2023-04-23T10:15:24;0.30;;;0.30;;
13386;SDS011;6763;48.524;9.044;2023-04-23T10:17:51;0.40;;;0.40;;
13386;SDS011;6763;48.524;9.044;2023-04-23T10:20:17;0.30;;;0.30;;
13386;SDS011;6763;48.524;9.044;2023-04-23T10:22:45;0.52;;;0.50;;
13386;SDS011;6763;48.524;9.044;2023-04-23T10:25:11;0.50;;;0.50;;
13386;SDS011;6763;48.524;9.044;2023-04-23T10:27:41;0.88;;;0.28;;
13386;SDS011;6763;48.524;9.044;2023-04-23T10:30:08;0.38;;;0.38;;
13386;SDS011;6763;48.524;9.044;2023-04-23T10:32:35;0.50;;;0.50;;
13386;SDS011;6763;48.524;9.044;2023-04-23T10:35:02;0.30;;;0.30;;
13386;SDS011;6763;48.524;9.044;2023-04-23T10:37:28;0.55;;;0.30;;
13386;SDS011;6763;48.524;9.044;2023-04-23T10:39:55;0.57;;;0.40;;
13386;SDS011;6763;48.524;9.044;2023-04-23T10:42:27;0.60;;;0.50;;
13386;SDS011;6763;48.524;9.044;2023-04-23T10:44:54;0.28;;;0.28;;
13386;SDS011;6763;48.524;9.044;2023-04-23T10:47:21;0.50;;;0.40;;
13386;SDS011;6763;48.524;9.044;2023-04-23T10:49:47;0.50;;;0.50;;
13386;SDS011;6763;48.524;9.044;2023-04-23T10:52:13;0.52;;;0.52;;
13386;SDS011;6763;48.524;9.044;2023-04-23T10:54:41;0.38;;;0.38;;
13386;SDS011;6763;48.524;9.044;2023-04-23T10:57:08;0.50;;;0.50;;
13386;SDS011;6763;48.524;9.044;2023-04-23T10:59:38;0.40;;;0.40;;
13386;SDS011;6763;48.524;9.044;2023-04-23T11:04:32;0.30;;;0.30;;
13386;SDS011;6763;48.524;9.044;2023-04-23T11:07:06;0.30;;;0.30;;
13386;SDS011;6763;48.524;9.044;2023-04-23T11:09:37;0.32;;;0.32;;
13386;SDS011;6763;48.524;9.044;2023-04-23T11:12:13;0.30;;;0.30;;
13386;SDS011;6763;48.524;9.044;2023-04-23T11:14:55;0.50;;;0.50;;
13386;SDS011;6763;48.524;9.044;2023-04-23T11:17:58;0.40;;;0.40;;
13386;SDS011;6763;48.524;9.044;2023-04-23T11:20:09;0.35;;;0.35;;
13386;SDS011;6763;48.524;9.044;2023-04-23T11:22:50;0.43;;;0.43;;
13386;SDS011;6763;48.524;9.044;2023-04-23T11:25:23;0.50;;;0.40;;
13386;SDS011;6763;48.524;9.044;2023-04-23T11:27:51;0.50;;;0.50;;
13386;SDS011;6763;48.524;9.044;2023-04-23T11:30:20;0.47;;;0.35;;
13386;SDS011;6763;48.524;9.044;2023-04-23T11:32:48;0.50;;;0.40;;
13386;SDS011;6763;48.524;9.044;2023-04-23T11:35:18;0.50;;;0.50;;
13386;SDS011;6763;48.524;9.044;2023-04-23T11:37:45;0.35;;;0.35;;
13386;SDS011;6763;48.524;9.044;2023-04-23T11:40:14;0.40;;;0.40;;
13386;SDS011;6763;48.524;9.044;2023-04-23T11:42:48;0.40;;;0.40;;
13386;SDS011;6763;48.524;9.044;2023-04-23T11:45:22;0.40;;;0.40;;
13386;SDS011;6763;48.524;9.044;2023-04-23T11:47:50;0.40;;;0.40;;
13386;SDS011;6763;48.524;9.044;2023-04-23T11:50:23;0.40;;;0.40;;
13386;SDS011;6763;48.524;9.044;2023-04-23T11:52:50;0.40;;;0.40;;
13386;SDS011;6763;48.524;9.044;2023-04-23T11:55:16;1.10;;;0.60;;
13386;SDS011;6763;48.524;9.044;2023-04-23T11:57:43;1.30;;;0.40;;
13386;SDS011;6763;48.524;9.044;2023-04-23T12:00:16;0.60;;;0.40;;
13386;SDS011;6763;48.524;9.044;2023-04-23T12:02:58;0.77;;;0.50;;
13386;SDS011;6763;48.524;9.044;2023-04-23T12:05:29;0.43;;;0.43;;
13386;SDS011;6763;48.524;9.044;2023-04-23T12:08:05;0.50;;;0.50;;
13386;SDS011;6763;48.524;9.044;2023-04-23T12:10:32;0.30;;;0.30;;
13386;SDS011;6763;48.524;9.044;2023-04-23T12:12:58;0.60;;;0.60;;
13386;SDS011;6763;48.524;9.044;2023-04-23T12:15:23;0.40;;;0.40;;
13386;SDS011;6763;48.524;9.044;2023-04-23T12:17:49;0.40;;;0.40;;
13386;SDS011;6763;48.524;9.044;2023-04-23T12:20:16;0.40;;;0.40;;
13386;SDS011;6763;48.524;9.044;2023-04-23T12:22:43;0.40;;;0.40;;
13386;SDS011;6763;48.524;9.044;2023-04-23T12:25:08;0.40;;;0.40;;
13386;SDS011;6763;48.524;9.044;2023-04-23T12:27:37;0.40;;;0.40;;
13386;SDS011;6763;48.524;9.044;2023-04-23T12:30:05;1.05;;;0.50;;
13386;SDS011;6763;48.524;9.044;2023-04-23T12:32:32;0.35;;;0.35;;
13386;SDS011;6763;48.524;9.044;2023-04-23T12:34:58;0.70;;;0.30;;
13386;SDS011;6763;48.524;9.044;2023-04-23T12:37:27;0.30;;;0.30;;
13386;SDS011;6763;48.524;9.044;2023-04-23T12:39:54;0.30;;;0.30;;
13386;SDS011;6763;48.524;9.044;2023-04-23T12:42:22;0.40;;;0.40;;
13386;SDS011;6763;48.524;9.044;2023-04-23T12:44:51;0.40;;;0.40;;
13386;SDS011;6763;48.524;9.044;2023-04-23T12:47:19;0.43;;;0.43;;
13386;SDS011;6763;48.524;9.044;2023-04-23T12:49:44;0.70;;;0.60;;
13386;SDS011;6763;48.524;9.044;2023-04-23T12:52:11;0.73;;;0.40;;
13386;SDS011;6763;48.524;9.044;2023-04-23T12:54:37;0.50;;;0.50;;
13386;SDS011;6763;48.524;9.044;2023-04-23T12:57:05;0.43;;;0.43;;
13386;SDS011;6763;48.524;9.044;2023-04-23T12:59:32;0.50;;;0.40;;
13386;SDS011;6763;48.524;9.044;2023-04-23T13:01:58;0.32;;;0.32;;
13386;SDS011;6763;48.524;9.044;2023-04-23T13:04:26;0.40;;;0.40;;
13386;SDS011;6763;48.524;9.044;2023-04-23T13:07:00;0.63;;;0.63;;
13386;SDS011;6763;48.524;9.044;2023-04-23T13:09:27;0.45;;;0.35;;
13386;SDS011;6763;48.524;9.044;2023-04-23T13:11:53;0.47;;;0.47;;
13386;SDS011;6763;48.524;9.044;2023-04-23T13:14:19;1.30;;;0.75;;
13386;SDS011;6763;48.524;9.044;2023-04-23T13:16:45;0.50;;;0.50;;
13386;SDS011;6763;48.524;9.044;2023-04-23T13:19:10;0.40;;;0.40;;
13386;SDS011;6763;48.524;9.044;2023-04-23T13:21:37;0.63;;;0.43;;
13386;SDS011;6763;48.524;9.044;2023-04-23T13:24:02;0.40;;;0.40;;
13386;SDS011;6763;48.524;9.044;2023-04-23T13:26:28;0.45;;;0.45;;
13386;SDS011;6763;48.524;9.044;2023-04-23T13:29:00;0.50;;;0.50;;
13386;SDS011;6763;48.524;9.044;2023-04-23T13:31:26;0.90;;;0.40;;
13386;SDS011;6763;48.524;9.044;2023-04-23T13:33:52;0.38;;;0.38;;
13386;SDS011;6763;48.524;9.044;2023-04-23T13:36:17;0.50;;;0.50;;
13386;SDS011;6763;48.524;9.044;2023-04-23T13:38:43;0.60;;;0.60;;
13386;SDS011;6763;48.524;9.044;2023-04-23T13:41:09;0.93;;;0.52;;
13386;SDS011;6763;48.524;9.044;2023-04-23T13:43:35;0.32;;;0.32;;
13386;SDS011;6763;48.524;9.044;2023-04-23T13:46:00;0.60;;;0.60;;
13386;SDS011;6763;48.524;9.044;2023-04-23T13:48:26;0.40;;;0.40;;
13386;SDS011;6763;48.524;9.044;2023-04-23T13:50:55;0.85;;;0.50;;
13386;SDS011;6763;48.524;9.044;2023-04-23T13:53:21;0.40;;;0.40;;
13386;SDS011;6763;48.524;9.044;2023-04-23T13:55:46;0.40;;;0.40;;
13386;SDS011;6763;48.524;9.044;2023-04-23T13:58:12;0.50;;;0.50;;
13386;SDS011;6763;48.524;9.044;2023-04-23T14:00:37;0.40;;;0.40;;
13386;SDS011;6763;48.524;9.044;2023-04-23T14:03:02;0.43;;;0.43;;
13386;SDS011;6763;48.524;9.044;2023-04-23T14:05:29;0.40;;;0.40;;
13386;SDS011;6763;48.524;9.044;2023-04-23T14:07:55;0.93;;;0.40;;
13386;SDS011;6763;48.524;9.044;2023-04-23T14:10:20;0.45;;;0.45;;
13386;SDS011;6763;48.524;9.044;2023-04-23T14:12:46;1.15;;;0.52;;
13386;SDS011;6763;48.524;9.044;2023-04-23T14:15:11;1.40;;;0.57;;
13386;SDS011;6763;48.524;9.044;2023-04-23T14:17:37;0.50;;;0.50;;
13386;SDS011;6763;48.524;9.044;2023-04-23T14:20:04;0.40;;;0.40;;
13386;SDS011;6763;48.524;9.044;2023-04-23T14:22:31;0.73;;;0.55;;
13386;SDS011;6763;48.524;9.044;2023-04-23T14:25:00;0.50;;;0.50;;
13386;SDS011;6763;48.524;9.044;2023-04-23T14:27:30;0.57;;;0.57;;
13386;SDS011;6763;48.524;9.044;2023-04-23T14:29:57;0.32;;;0.32;;
13386;SDS011;6763;48.524;9.044;2023-04-23T14:32:29;0.50;;;0.50;;
13386;SDS011;6763;48.524;9.044;2023-04-23T14:34:54;0.90;;;0.60;;
13386;SDS011;6763;48.524;9.044;2023-04-23T14:37:20;1.00;;;0.68;;
13386;SDS011;6763;48.524;9.044;2023-04-23T14:39:45;0.40;;;0.40;;
13386;SDS011;6763;48.524;9.044;2023-04-23T14:42:10;0.63;;;0.50;;
13386;SDS011;6763;48.524;9.044;2023-04-23T14:44:36;0.47;;;0.47;;
13386;SDS011;6763;48.524;9.044;2023-04-23T14:47:02;0.50;;;0.50;;
13386;SDS011;6763;48.524;9.044;2023-04-23T14:49:27;2.67;;;0.60;;
13386;SDS011;6763;48.524;9.044;2023-04-23T14:51:53;0.60;;;0.60;;
13386;SDS011;6763;48.524;9.044;2023-04-23T14:54:18;0.55;;;0.55;;
13386;SDS011;6763;48.524;9.044;2023-04-23T14:56:44;0.73;;;0.73;;
13386;SDS011;6763;48.524;9.044;2023-04-23T14:59:10;0.50;;;0.50;;
13386;SDS011;6763;48.524;9.044;2023-04-23T15:01:35;1.90;;;0.73;;
13386;SDS011;6763;48.524;9.044;2023-04-23T15:04:00;0.85;;;0.55;;
13386;SDS011;6763;48.524;9.044;2023-04-23T15:06:26;0.50;;;0.50;;
13386;SDS011;6763;48.524;9.044;2023-04-23T15:08:51;0.77;;;0.50;;